createdAt,value
2022-09-22T00:01:33.639Z,24.30
2022-09-22T00:04:07.118Z,28.00
2022-09-22T00:06:39.608Z,19.90
2022-09-22T00:09:10.483Z,18.80
2022-09-22T00:11:46.173Z,17.60
2022-09-22T00:14:22.821Z,16.20
2022-09-22T00:17:01.133Z,22.40
2022-09-22T00:19:33.470Z,19.40
2022-09-22T00:22:01.368Z,27.00
2022-09-22T00:24:31.317Z,27.30
2022-09-22T00:26:59.840Z,29.40
2022-09-22T00:29:30.295Z,28.30
2022-09-22T00:32:00.293Z,25.50
2022-09-22T00:34:29.833Z,21.60
2022-09-22T00:36:57.322Z,22.30
2022-09-22T00:39:24.847Z,21.80
2022-09-22T00:41:53.861Z,23.90
2022-09-22T00:44:21.452Z,21.30
2022-09-22T00:47:01.353Z,18.60
2022-09-22T00:49:51.362Z,20.70
2022-09-22T00:52:27.501Z,19.10
2022-09-22T00:54:58.795Z,21.30
2022-09-22T00:57:33.347Z,20.60
2022-09-22T01:00:05.368Z,17.50
2022-09-22T01:02:33.118Z,15.90
2022-09-22T01:05:00.964Z,15.60
2022-09-22T01:07:31.144Z,14.80
2022-09-22T01:09:59.853Z,13.70
2022-09-22T01:12:31.249Z,14.70
2022-09-22T01:15:21.910Z,12.20
2022-09-22T01:18:10.711Z,15.20
2022-09-22T01:20:56.458Z,19.20
2022-09-22T01:23:54.474Z,16.90
2022-09-22T01:26:49.581Z,17.40
2022-09-22T01:30:01.390Z,17.50
2022-09-22T01:32:44.813Z,19.50
2022-09-22T01:35:38.711Z,19.50
2022-09-22T01:39:09.744Z,22.50
2022-09-22T01:41:59.055Z,15.30
2022-09-22T01:44:36.838Z,14.40
2022-09-22T01:47:49.669Z,11.00
2022-09-22T01:50:34.830Z,12.40
2022-09-22T01:53:10.404Z,12.20
2022-09-22T01:55:44.564Z,11.60
2022-09-22T01:58:19.812Z,13.90
2022-09-22T02:00:59.505Z,11.50
2022-09-22T02:03:39.340Z,12.60
2022-09-22T02:06:16.324Z,12.10
2022-09-22T02:08:59.430Z,13.00
2022-09-22T02:11:27.201Z,14.10
2022-09-22T02:13:55.233Z,11.80
2022-09-22T02:16:25.383Z,12.30
2022-09-22T02:19:18.204Z,13.20
2022-09-22T02:21:48.317Z,11.20
2022-09-22T02:24:46.962Z,11.40
2022-09-22T02:27:27.499Z,11.80
2022-09-22T02:30:08.342Z,9.90
2022-09-22T02:32:40.524Z,9.90
2022-09-22T02:35:10.015Z,11.10
2022-09-22T02:37:50.294Z,11.30
2022-09-22T02:40:33.322Z,12.60
2022-09-22T02:43:25.972Z,13.00
2022-09-22T02:46:23.699Z,13.40
2022-09-22T02:49:00.409Z,11.20
2022-09-22T02:51:30.923Z,13.50
2022-09-22T02:53:58.808Z,10.70
2022-09-22T02:56:26.406Z,12.60
2022-09-22T02:58:58.221Z,10.90
2022-09-22T03:01:26.314Z,11.30
2022-09-22T03:03:53.981Z,11.40
2022-09-22T03:06:21.527Z,11.30
2022-09-22T03:08:49.159Z,13.30
2022-09-22T03:11:16.760Z,13.40
2022-09-22T03:13:44.599Z,13.70
2022-09-22T03:16:12.621Z,13.20
2022-09-22T03:18:40.267Z,12.70
2022-09-22T03:21:07.896Z,11.20
2022-09-22T03:23:35.696Z,12.70
2022-09-22T03:26:03.425Z,13.70
2022-09-22T03:28:30.991Z,11.20
2022-09-22T03:30:58.612Z,15.90
2022-09-22T03:33:26.219Z,12.40
2022-09-22T03:35:53.748Z,14.50
2022-09-22T03:38:21.303Z,15.10
2022-09-22T03:40:52.929Z,15.90
2022-09-22T03:43:21.153Z,16.40
2022-09-22T03:45:48.780Z,14.40
2022-09-22T03:48:16.487Z,16.20
2022-09-22T03:50:44.044Z,19.10
2022-09-22T03:53:11.611Z,16.90
2022-09-22T03:55:39.351Z,14.80
2022-09-22T03:58:09.774Z,14.10
2022-09-22T04:00:37.387Z,15.80
2022-09-22T04:03:05.132Z,16.40
2022-09-22T04:05:33.036Z,15.80
2022-09-22T04:08:00.959Z,16.90
2022-09-22T04:10:28.657Z,18.70
2022-09-22T04:12:56.220Z,16.60
2022-09-22T04:15:23.823Z,16.40
2022-09-22T04:17:51.421Z,17.70
2022-09-22T04:20:19.266Z,18.70
2022-09-22T04:22:46.804Z,18.20
2022-09-22T04:25:14.468Z,20.00
2022-09-22T04:27:42.038Z,18.90
2022-09-22T04:30:11.031Z,21.60
2022-09-22T04:32:39.029Z,20.50
2022-09-22T04:35:09.013Z,19.90
2022-09-22T04:37:36.596Z,19.30
2022-09-22T04:40:04.633Z,22.60
2022-09-22T04:42:32.388Z,20.80
2022-09-22T04:45:02.211Z,21.80
2022-09-22T04:47:30.580Z,21.10
2022-09-22T04:49:58.224Z,23.40
2022-09-22T04:52:26.365Z,24.00
2022-09-22T04:54:54.123Z,23.20
2022-09-22T04:57:21.738Z,26.30
2022-09-22T04:59:49.234Z,24.10
2022-09-22T05:02:16.788Z,27.40
2022-09-22T05:04:44.421Z,23.90
2022-09-22T05:07:12.180Z,25.60
2022-09-22T05:09:39.679Z,22.70
2022-09-22T05:12:07.279Z,22.50
2022-09-22T05:14:35.526Z,23.20
2022-09-22T05:17:03.255Z,19.70
2022-09-22T05:19:30.858Z,23.80
2022-09-22T05:21:58.454Z,20.90
2022-09-22T05:24:25.980Z,25.20
2022-09-22T05:26:54.165Z,25.00
2022-09-22T05:29:25.804Z,24.10
2022-09-22T05:31:55.397Z,27.50
2022-09-22T05:34:22.883Z,26.70
2022-09-22T05:36:51.028Z,29.50
2022-09-22T05:39:18.599Z,29.30
2022-09-22T05:41:46.508Z,26.70
2022-09-22T05:44:14.627Z,30.90
2022-09-22T05:46:42.261Z,27.80
2022-09-22T05:49:09.867Z,24.30
2022-09-22T05:51:37.463Z,26.20
2022-09-22T05:54:05.216Z,22.70
2022-09-22T05:56:33.576Z,23.90
2022-09-22T05:59:01.268Z,23.30
2022-09-22T06:01:29.381Z,28.30
2022-09-22T06:03:57.170Z,26.30
2022-09-22T06:06:24.861Z,26.10
2022-09-22T06:08:52.449Z,27.70
2022-09-22T06:11:20.027Z,26.80
2022-09-22T06:13:54.088Z,26.50
2022-09-22T06:16:21.794Z,23.80
2022-09-22T06:18:49.386Z,23.70
2022-09-22T06:21:17.359Z,29.50
2022-09-22T06:23:44.934Z,24.70
2022-09-22T06:26:12.664Z,21.10
2022-09-22T06:28:40.256Z,17.90
2022-09-22T06:31:07.955Z,18.90
2022-09-22T06:33:35.901Z,21.00
2022-09-22T06:36:07.136Z,18.90
2022-09-22T06:38:35.095Z,21.30
2022-09-22T06:41:06.826Z,20.70
2022-09-22T06:43:38.122Z,22.70
2022-09-22T06:46:06.083Z,23.40
2022-09-22T06:48:34.440Z,20.80
2022-09-22T06:51:02.114Z,19.60
2022-09-22T06:53:29.747Z,25.10
2022-09-22T06:56:02.045Z,20.10
2022-09-22T06:58:29.676Z,18.10
2022-09-22T07:01:09.713Z,19.00
2022-09-22T07:03:41.631Z,19.60
2022-09-22T07:06:11.016Z,14.90
2022-09-22T07:08:39.629Z,15.30
2022-09-22T07:11:10.123Z,16.80
2022-09-22T07:13:41.348Z,17.50
2022-09-22T07:16:16.245Z,16.90
2022-09-22T07:18:47.015Z,17.70
2022-09-22T07:21:20.973Z,18.10
2022-09-22T07:23:50.560Z,19.90
2022-09-22T07:26:26.583Z,14.70
2022-09-22T07:28:58.505Z,16.30
2022-09-22T07:31:32.000Z,18.10
2022-09-22T07:34:00.354Z,16.20
2022-09-22T07:36:31.882Z,15.30
2022-09-22T07:39:10.978Z,14.20
2022-09-22T07:41:43.325Z,19.00
2022-09-22T07:44:33.255Z,14.60
2022-09-22T07:47:03.418Z,16.40
2022-09-22T07:49:31.545Z,13.90
2022-09-22T07:51:59.259Z,11.60
2022-09-22T07:54:28.215Z,10.70
2022-09-22T07:56:58.826Z,10.40
2022-09-22T07:59:27.488Z,11.10
2022-09-22T08:01:55.758Z,12.60
2022-09-22T08:04:24.033Z,12.60
2022-09-22T08:06:55.975Z,11.00
2022-09-22T08:09:25.343Z,14.40
2022-09-22T08:11:53.909Z,13.10
2022-09-22T08:14:23.132Z,9.90
2022-09-22T08:16:53.464Z,8.10
2022-09-22T08:19:24.019Z,9.30
2022-09-22T08:21:56.176Z,9.80
2022-09-22T08:24:24.131Z,11.70
2022-09-22T08:26:55.809Z,11.20
2022-09-22T08:29:24.786Z,9.90
2022-09-22T08:31:53.975Z,11.50
2022-09-22T08:34:22.462Z,10.00
2022-09-22T08:36:50.708Z,10.20
2022-09-22T08:39:18.904Z,12.10
2022-09-22T08:42:09.307Z,9.90
2022-09-22T08:45:26.163Z,10.40
2022-09-22T08:48:30.168Z,7.40
2022-09-22T08:51:30.753Z,9.60
2022-09-22T08:54:03.036Z,16.50
2022-09-22T08:57:11.004Z,9.10
2022-09-22T08:59:50.639Z,7.50
2022-09-22T09:02:44.393Z,6.90
2022-09-22T09:05:50.822Z,9.80
2022-09-22T09:09:05.058Z,6.30
2022-09-22T09:12:08.922Z,5.90
2022-09-22T09:14:55.476Z,6.10
2022-09-22T09:17:33.377Z,5.10
2022-09-22T09:20:48.834Z,5.70
2022-09-22T09:25:21.857Z,6.30
2022-09-22T09:26:16.219Z,2.90
2022-09-22T09:29:03.013Z,3.20
2022-09-22T09:31:55.731Z,3.80
2022-09-22T09:34:29.070Z,1.10
2022-09-22T09:37:17.064Z,3.50
2022-09-22T09:39:46.127Z,2.80
2022-09-22T09:42:20.328Z,7.10
2022-09-22T09:44:53.354Z,2.90
2022-09-22T09:48:02.916Z,3.70
2022-09-22T09:50:32.425Z,4.40
2022-09-22T09:53:00.769Z,5.30
2022-09-22T09:55:28.384Z,4.80
2022-09-22T09:58:29.921Z,4.80
2022-09-22T10:01:00.464Z,6.70
2022-09-22T10:03:35.793Z,5.10
2022-09-22T10:06:10.264Z,6.20
2022-09-22T10:08:55.993Z,2.20
2022-09-22T10:11:32.608Z,2.70
2022-09-22T10:14:01.205Z,2.90
2022-09-22T10:16:31.644Z,6.30
2022-09-22T10:19:05.755Z,4.20
2022-09-22T10:21:34.407Z,6.30
2022-09-22T10:24:22.923Z,4.90
2022-09-22T10:26:57.447Z,4.80
2022-09-22T10:29:27.282Z,5.70
2022-09-22T10:32:16.794Z,6.60
2022-09-22T10:34:49.322Z,5.10
2022-09-22T10:37:25.597Z,5.90
2022-09-22T10:40:10.401Z,4.00
2022-09-22T10:42:43.456Z,4.60
2022-09-22T10:45:19.488Z,4.30
2022-09-22T10:47:58.070Z,4.70
2022-09-22T10:50:56.232Z,3.00
2022-09-22T10:53:46.843Z,3.00
2022-09-22T10:56:46.609Z,5.10
2022-09-22T10:59:42.589Z,7.40
2022-09-22T11:02:45.423Z,6.20
2022-09-22T11:05:47.029Z,4.80
2022-09-22T11:08:38.032Z,5.90
2022-09-22T11:11:57.451Z,5.50
2022-09-22T11:14:42.919Z,4.60
2022-09-22T11:17:47.787Z,4.50
2022-09-22T11:20:38.540Z,4.60
2022-09-22T11:23:31.869Z,7.40
2022-09-22T11:26:28.911Z,5.40
2022-09-22T11:29:45.310Z,4.00
2022-09-22T11:32:44.588Z,5.10
2022-09-22T11:35:42.915Z,8.10
2022-09-22T11:39:27.853Z,5.70
2022-09-22T11:42:15.399Z,4.90
2022-09-22T11:45:28.755Z,7.80
2022-09-22T11:48:08.032Z,8.90
2022-09-22T11:51:01.567Z,6.50
2022-09-22T11:54:01.036Z,8.90
2022-09-22T11:56:31.759Z,4.20
2022-09-22T11:59:12.966Z,3.20
2022-09-22T12:01:41.780Z,2.60
2022-09-22T12:04:33.800Z,3.40
2022-09-22T12:07:10.345Z,4.40
2022-09-22T12:09:48.215Z,3.00
2022-09-22T12:12:22.170Z,3.20
2022-09-22T12:15:24.568Z,4.70
2022-09-22T12:18:10.956Z,2.20
2022-09-22T12:21:06.673Z,2.40
2022-09-22T12:23:51.308Z,2.80
2022-09-22T12:26:37.091Z,6.70
2022-09-22T12:29:13.832Z,4.30
2022-09-22T12:31:47.276Z,4.60
2022-09-22T12:34:43.302Z,4.60
2022-09-22T12:37:27.771Z,3.80
2022-09-22T12:40:03.507Z,4.00
2022-09-22T12:42:39.276Z,4.90
2022-09-22T12:45:28.496Z,4.40
2022-09-22T12:48:00.481Z,3.60
2022-09-22T12:50:40.574Z,4.10
2022-09-22T12:53:23.206Z,3.60
2022-09-22T12:55:55.939Z,3.90
2022-09-22T12:58:26.266Z,6.90
2022-09-22T13:00:56.553Z,5.30
2022-09-22T13:03:27.255Z,4.40
2022-09-22T13:06:05.931Z,6.50
2022-09-22T13:08:33.497Z,7.30
2022-09-22T13:11:09.520Z,5.70
2022-09-22T13:13:39.246Z,4.10
2022-09-22T13:16:15.928Z,5.80
2022-09-22T13:18:54.016Z,4.40
2022-09-22T13:21:28.948Z,5.00
2022-09-22T13:23:59.096Z,3.80
2022-09-22T13:26:39.049Z,4.00
2022-09-22T13:29:12.700Z,11.70
2022-09-22T13:31:45.296Z,3.40
2022-09-22T13:34:29.417Z,5.10
2022-09-22T13:37:03.038Z,3.90
2022-09-22T13:39:35.487Z,6.10
2022-09-22T13:42:14.499Z,6.80
2022-09-22T13:44:48.123Z,5.50
2022-09-22T13:47:21.932Z,3.50
2022-09-22T13:49:56.403Z,3.20
2022-09-22T13:52:29.904Z,2.70
2022-09-22T13:55:04.803Z,3.80
2022-09-22T13:57:38.356Z,4.80
2022-09-22T14:00:09.719Z,3.70
2022-09-22T14:02:45.498Z,2.60
2022-09-22T14:05:25.743Z,4.90
2022-09-22T14:08:11.363Z,2.50
2022-09-22T14:10:41.927Z,4.30
2022-09-22T14:13:43.740Z,3.80
2022-09-22T14:16:33.501Z,2.70
2022-09-22T14:19:20.854Z,2.30
2022-09-22T14:22:17.931Z,3.40
2022-09-22T14:24:57.640Z,3.40
2022-09-22T14:27:55.338Z,4.00
2022-09-22T14:30:31.118Z,2.80
2022-09-22T14:33:03.939Z,3.30
2022-09-22T14:35:37.463Z,6.10
2022-09-22T14:38:19.165Z,4.50
2022-09-22T14:40:58.341Z,5.80
2022-09-22T14:43:38.989Z,4.20
2022-09-22T14:46:33.856Z,4.20
2022-09-22T14:49:47.563Z,4.30
2022-09-22T14:52:32.628Z,4.90
2022-09-22T14:55:18.318Z,3.70
2022-09-22T14:57:49.987Z,4.70
2022-09-22T15:00:37.014Z,6.10
2022-09-22T15:03:23.740Z,5.40
2022-09-22T15:05:51.555Z,3.60
2022-09-22T15:08:29.570Z,4.50
2022-09-22T15:11:00.988Z,7.80
2022-09-22T15:13:45.312Z,6.50
2022-09-22T15:16:51.728Z,11.10
2022-09-22T15:19:20.429Z,11.90
2022-09-22T15:21:50.630Z,11.10
2022-09-22T15:24:26.882Z,12.80
2022-09-22T15:26:57.370Z,7.80
2022-09-22T15:29:25.075Z,7.80
2022-09-22T15:31:52.695Z,5.90
2022-09-22T15:34:20.368Z,8.00
2022-09-22T15:36:50.081Z,7.50
2022-09-22T15:39:23.704Z,8.10
2022-09-22T15:41:53.190Z,6.70
2022-09-22T15:44:21.034Z,18.10
2022-09-22T15:46:54.502Z,11.00
2022-09-22T15:49:26.238Z,14.20
2022-09-22T15:51:57.513Z,13.70
2022-09-22T15:54:26.301Z,8.70
2022-09-22T15:56:56.317Z,7.30
2022-09-22T15:59:32.276Z,6.60
2022-09-22T16:02:00.560Z,7.10
2022-09-22T16:04:30.043Z,9.90
2022-09-22T16:07:08.393Z,8.10
2022-09-22T16:09:36.386Z,9.60
2022-09-22T16:12:07.605Z,9.50
2022-09-22T16:14:36.692Z,16.30
2022-09-22T16:17:05.380Z,15.50
2022-09-22T16:19:33.851Z,17.20
2022-09-22T16:22:02.519Z,10.90
2022-09-22T16:24:30.145Z,12.40
2022-09-22T16:26:57.795Z,13.70
2022-09-22T16:29:25.666Z,16.40
2022-09-22T16:31:54.078Z,13.20
2022-09-22T16:34:21.668Z,20.00
2022-09-22T16:36:49.386Z,25.00
2022-09-22T16:39:17.217Z,21.00
2022-09-22T16:41:46.553Z,20.10
2022-09-22T16:44:15.708Z,18.30
2022-09-22T16:46:43.345Z,18.90
2022-09-22T16:49:16.085Z,21.50
2022-09-22T16:51:49.509Z,25.70
2022-09-22T16:54:19.446Z,32.20
2022-09-22T16:56:51.600Z,44.50
2022-09-22T16:59:23.659Z,34.70
2022-09-22T17:01:51.397Z,33.90
2022-09-22T17:04:20.118Z,32.70
2022-09-22T17:06:49.022Z,38.00
2022-09-22T17:09:17.727Z,41.90
2022-09-22T17:11:48.621Z,46.20
2022-09-22T17:14:23.014Z,50.10
2022-09-22T17:16:53.902Z,60.70
2022-09-22T17:19:27.564Z,60.20
2022-09-22T17:21:56.798Z,50.10
2022-09-22T17:24:26.594Z,46.30
2022-09-22T17:26:59.109Z,44.70
2022-09-22T17:29:32.505Z,44.80
2022-09-22T17:32:08.067Z,44.10
2022-09-22T17:34:38.180Z,45.30
2022-09-22T17:37:06.164Z,45.70
2022-09-22T17:39:33.652Z,45.40
2022-09-22T17:42:01.304Z,44.50
2022-09-22T17:44:33.546Z,40.50
2022-09-22T17:47:19.989Z,38.10
2022-09-22T17:50:06.711Z,38.80
2022-09-22T17:52:52.939Z,39.60
2022-09-22T17:55:24.984Z,36.80
2022-09-22T17:57:54.503Z,40.40
2022-09-22T18:00:24.080Z,38.50
2022-09-22T18:02:54.447Z,39.10
2022-09-22T18:05:26.723Z,41.70
2022-09-22T18:07:58.525Z,41.00
2022-09-22T18:10:32.344Z,39.30
2022-09-22T18:13:01.419Z,35.60
2022-09-22T18:15:29.895Z,34.60
2022-09-22T18:17:58.261Z,30.80
2022-09-22T18:20:27.727Z,29.80
2022-09-22T18:22:56.115Z,38.00
2022-09-22T18:25:24.055Z,39.20
2022-09-22T18:27:53.516Z,35.50
2022-09-22T18:30:21.410Z,41.20
2022-09-22T18:32:49.574Z,38.60
2022-09-22T18:35:17.208Z,33.50
2022-09-22T18:37:44.804Z,36.10
2022-09-22T18:40:12.846Z,31.50
2022-09-22T18:42:44.616Z,30.40
2022-09-22T18:45:14.125Z,27.80
2022-09-22T18:47:43.577Z,26.20
2022-09-22T18:50:12.705Z,26.60
2022-09-22T18:52:45.896Z,27.20
2022-09-22T18:55:19.078Z,29.00
2022-09-22T18:57:48.057Z,28.70
2022-09-22T19:00:20.756Z,29.00
2022-09-22T19:02:49.429Z,29.60
2022-09-22T19:05:18.504Z,30.50
2022-09-22T19:07:47.827Z,27.70
2022-09-22T19:10:21.481Z,30.40
2022-09-22T19:12:49.566Z,31.40
2022-09-22T19:15:19.495Z,34.20
2022-09-22T19:17:49.439Z,28.10
2022-09-22T19:20:23.284Z,30.60
2022-09-22T19:22:52.660Z,31.30
2022-09-22T19:25:22.152Z,25.60
2022-09-22T19:27:52.937Z,31.40
2022-09-22T19:30:24.105Z,29.40
2022-09-22T19:32:54.499Z,30.40
2022-09-22T19:35:22.087Z,28.00
2022-09-22T19:37:51.841Z,31.20
2022-09-22T19:40:24.334Z,26.00
2022-09-22T19:42:53.599Z,28.20
2022-09-22T19:45:23.837Z,27.70
2022-09-22T19:47:56.199Z,27.90
2022-09-22T19:50:25.814Z,29.70
2022-09-22T19:52:53.440Z,29.20
2022-09-22T19:55:21.420Z,30.10
2022-09-22T19:57:52.233Z,31.40
2022-09-22T20:00:26.141Z,32.80
2022-09-22T20:02:59.491Z,34.10
2022-09-22T20:05:38.537Z,38.90
2022-09-22T20:08:15.590Z,44.30
2022-09-22T20:10:47.002Z,48.10
2022-09-22T20:13:33.591Z,64.70
2022-09-22T20:16:02.539Z,66.40
2022-09-22T20:18:30.256Z,65.90
2022-09-22T20:20:59.572Z,66.90
2022-09-22T20:23:39.132Z,62.70
2022-09-22T20:26:06.748Z,63.70
2022-09-22T20:28:34.482Z,69.00
2022-09-22T20:31:02.182Z,71.80
2022-09-22T20:33:29.987Z,68.50
2022-09-22T20:35:57.751Z,75.00
2022-09-22T20:38:25.453Z,76.00
2022-09-22T20:40:53.606Z,67.30
2022-09-22T20:43:21.542Z,79.50
2022-09-22T20:45:49.087Z,72.40
2022-09-22T20:48:18.534Z,77.80
2022-09-22T20:50:58.319Z,78.10
2022-09-22T20:53:27.113Z,81.00
2022-09-22T20:56:10.485Z,70.80
2022-09-22T20:58:44.341Z,71.40
2022-09-22T21:01:16.230Z,76.60
2022-09-22T21:03:44.612Z,81.00
2022-09-22T21:06:13.136Z,83.90
2022-09-22T21:09:01.884Z,78.50
2022-09-22T21:11:30.617Z,71.90
2022-09-22T21:14:02.972Z,76.90
2022-09-22T21:16:31.467Z,74.90
2022-09-22T21:19:02.190Z,66.10
2022-09-22T21:21:33.205Z,57.30
2022-09-22T21:24:03.776Z,55.80
2022-09-22T21:26:31.782Z,55.70
2022-09-22T21:28:59.655Z,53.30
2022-09-22T21:31:28.256Z,56.50
2022-09-22T21:33:56.233Z,50.50
2022-09-22T21:36:25.316Z,49.60
2022-09-22T21:38:59.030Z,49.00
2022-09-22T21:41:30.256Z,51.00
2022-09-22T21:43:58.400Z,53.70
2022-09-22T21:46:29.609Z,44.10
2022-09-22T21:49:03.108Z,41.40
2022-09-22T21:51:41.300Z,41.30
2022-09-22T21:54:16.510Z,38.80
2022-09-22T21:56:44.479Z,39.00
2022-09-22T21:59:13.774Z,33.60
2022-09-22T22:01:45.012Z,31.90
2022-09-22T22:04:17.668Z,35.30
2022-09-22T22:06:46.427Z,35.80
2022-09-22T22:09:21.394Z,44.30
2022-09-22T22:11:56.751Z,42.00
2022-09-22T22:14:32.577Z,37.60
2022-09-22T22:17:02.297Z,39.20
2022-09-22T22:19:30.243Z,37.50
2022-09-22T22:21:57.906Z,37.20
2022-09-22T22:24:29.034Z,35.30
2022-09-22T22:27:07.841Z,38.40
2022-09-22T22:29:38.873Z,43.10
2022-09-22T22:32:10.221Z,40.90
2022-09-22T22:34:38.068Z,38.00
2022-09-22T22:37:09.630Z,37.20
2022-09-22T22:39:37.947Z,39.20
2022-09-22T22:42:06.990Z,35.50
2022-09-22T22:44:35.175Z,40.20
2022-09-22T22:47:03.084Z,43.90
2022-09-22T22:49:31.327Z,46.80
2022-09-22T22:51:58.896Z,44.50
2022-09-22T22:54:26.488Z,41.40
2022-09-22T22:56:53.992Z,47.40
2022-09-22T22:59:21.570Z,43.80
2022-09-22T23:01:49.476Z,42.80
2022-09-22T23:04:17.131Z,49.00
2022-09-22T23:06:44.959Z,61.60
2022-09-22T23:09:16.709Z,57.50
2022-09-22T23:11:46.374Z,64.40
2022-09-22T23:14:15.889Z,62.00
2022-09-22T23:17:59.864Z,59.10
2022-09-22T23:20:27.513Z,60.10
2022-09-22T23:22:55.144Z,55.10
2022-09-22T23:25:23.747Z,57.10
2022-09-22T23:27:51.662Z,50.60
2022-09-22T23:30:19.256Z,41.80
2022-09-22T23:32:47.404Z,45.10
2022-09-22T23:35:15.143Z,41.40
2022-09-22T23:37:42.744Z,39.80
2022-09-22T23:40:10.852Z,38.30
2022-09-22T23:42:38.565Z,37.20
2022-09-22T23:45:06.801Z,37.20
2022-09-22T23:47:34.603Z,31.70
2022-09-22T23:50:02.977Z,29.90
2022-09-22T23:52:31.504Z,26.90
2022-09-22T23:54:59.159Z,23.70
2022-09-22T23:57:26.818Z,23.20
2022-09-22T23:59:54.386Z,21.90
